Time;durP1;ratioP1;P1;durP2;ratioP2;P2;SDS_P1;SDS_P2;PMS_P1;PMS_P2;Temp;Humidity;BMP_temperature;BMP_pressure;BME280_temperature;BME280_humidity;BME280_pressure;Samples;Min_cycle;Max_cycle;Signal;HPM_P1;HPM_P2
2023/05/17 00:01:19;;;;;;;13.20;6.10;;;;;;;;;;106858;1269;22654;-77
2023/05/17 00:03:46;;;;;;;14.10;6.90;;;;;;;;;;106722;1276;25269;-77
2023/05/17 00:06:16;;;;;;;13.60;6.30;;;;;;;;;;106907;1262;22896;-77
2023/05/17 00:08:54;;;;;;;15.00;6.70;;;;;;;;;;106860;1276;23905;-82
2023/05/17 00:11:30;;;;;;;11.60;5.50;;;;;;;;;;107019;1256;24243;-79
2023/05/17 00:14:00;;;;;;;12.50;5.80;;;;;;;;;;107054;1275;22651;-79
2023/05/17 00:16:37;;;;;;;13.00;7.00;;;;;;;;;;106911;1275;22524;-82
2023/05/17 00:19:10;;;;;;;12.80;6.50;;;;;;;;;;106904;1275;22539;-84
2023/05/17 00:21:57;;;;;;;13.70;6.60;;;;;;;;;;106863;1276;22519;-80
2023/05/17 00:24:29;;;;;;;14.80;7.00;;;;;;;;;;106934;1276;22519;-78
2023/05/17 00:27:26;;;;;;;13.90;7.40;;;;;;;;;;106975;1276;22620;-81
2023/05/17 00:29:58;;;;;;;14.10;6.90;;;;;;;;;;106898;1253;25271;-80
2023/05/17 00:32:46;;;;;;;13.50;6.80;;;;;;;;;;106997;1254;22521;-81
2023/05/17 00:35:17;;;;;;;12.70;6.50;;;;;;;;;;107058;1275;22623;-82
2023/05/17 00:38:05;;;;;;;13.50;6.80;;;;;;;;;;106896;1275;22520;-83
2023/05/17 00:40:34;;;;;;;14.00;6.50;;;;;;;;;;106819;1276;22498;-77
2023/05/17 00:43:21;;;;;;;14.90;6.90;;;;;;;;;;106868;1276;25301;-80
2023/05/17 00:46:08;;;;;;;12.00;6.90;;;;;;;;;;106881;1276;26586;-77
2023/05/17 00:48:38;;;;;;;15.70;6.40;;;;;;;;;;106906;1276;22519;-78
2023/05/17 00:51:25;;;;;;;11.10;5.90;;;;;;;;;;106911;1259;24254;-82
2023/05/17 00:53:58;;;;;;;14.40;6.10;;;;;;;;;;106938;1275;22524;-82
2023/05/17 00:56:25;;;;;;;12.80;6.50;;;;;;;;;;107014;1275;25275;-80
2023/05/17 00:58:54;;;;;;;14.40;6.80;;;;;;;;;;106906;1275;24224;-81
2023/05/17 01:01:33;;;;;;;15.60;6.70;;;;;;;;;;106837;1263;23233;-80
2023/05/17 01:04:02;;;;;;;14.90;6.90;;;;;;;;;;106995;1276;22534;-80
2023/05/17 01:06:53;;;;;;;13.80;6.90;;;;;;;;;;106859;1276;22651;-80
2023/05/17 01:09:33;;;;;;;;;;;;;;;;;;;;;
2023/05/17 01:12:29;;;;;;;13.40;6.40;;;;;;;;;;106922;1269;22516;-77
2023/05/17 01:15:10;;;;;;;15.00;5.90;;;;;;;;;;106856;1275;22664;-83
2023/05/17 01:17:43;;;;;;;12.40;5.60;;;;;;;;;;106934;1275;22536;-80
2023/05/17 01:20:32;;;;;;;12.10;6.50;;;;;;;;;;107069;1275;24365;-81
2023/05/17 01:23:18;;;;;;;11.90;6.60;;;;;;;;;;107137;1259;22538;-78
2023/05/17 01:26:00;;;;;;;12.30;6.20;;;;;;;;;;106963;1276;22548;-82
2023/05/17 01:28:30;;;;;;;15.40;6.60;;;;;;;;;;106900;1276;24215;-79
2023/05/17 01:30:59;;;;;;;10.00;5.20;;;;;;;;;;106944;1276;22524;-77
2023/05/17 01:33:30;;;;;;;12.30;6.00;;;;;;;;;;106906;1260;25376;-80
2023/05/17 01:35:59;;;;;;;10.30;5.70;;;;;;;;;;107108;1276;24193;-82
2023/05/17 01:38:47;;;;;;;13.70;5.50;;;;;;;;;;106880;1275;24378;-80
2023/05/17 01:41:42;;;;;;;11.00;4.90;;;;;;;;;;107006;1253;22523;-81
2023/05/17 01:44:16;;;;;;;12.50;5.90;;;;;;;;;;106919;1276;25278;-77
2023/05/17 01:46:46;;;;;;;12.30;5.70;;;;;;;;;;106927;1276;24180;-81
2023/05/17 01:49:26;;;;;;;12.40;5.10;;;;;;;;;;106846;1276;22518;-75
2023/05/17 01:52:15;;;;;;;11.70;5.00;;;;;;;;;;106919;1270;25399;-81
2023/05/17 01:54:51;;;;;;;11.20;4.40;;;;;;;;;;106964;1263;22517;-77
2023/05/17 01:57:23;;;;;;;11.40;4.40;;;;;;;;;;106966;1275;25275;-78
2023/05/17 02:00:00;;;;;;;8.50;3.60;;;;;;;;;;106907;1275;24365;-83
2023/05/17 02:02:35;;;;;;;10.20;4.10;;;;;;;;;;107011;1258;23871;-77
2023/05/17 02:05:36;;;;;;;10.60;4.30;;;;;;;;;;106891;1276;22527;-81
2023/05/17 02:08:10;;;;;;;9.10;3.90;;;;;;;;;;107009;1276;25266;-78
2023/05/17 02:10:47;;;;;;;9.80;3.40;;;;;;;;;;106933;1276;25228;-79
2023/05/17 02:13:55;;;;;;;9.70;3.60;;;;;;;;;;106932;1275;22566;-82
2023/05/17 02:16:42;;;;;;;8.80;3.50;;;;;;;;;;107036;1276;24228;-81
2023/05/17 02:19:36;;;;;;;11.00;3.50;;;;;;;;;;107078;1275;25265;-81
2023/05/17 02:22:02;;;;;;;8.30;3.30;;;;;;;;;;107025;1254;24362;-79
2023/05/17 02:24:31;;;;;;;11.30;3.60;;;;;;;;;;106923;1276;22527;-78
2023/05/17 02:26:58;;;;;;;9.40;3.00;;;;;;;;;;106890;1276;22490;-80
2023/05/17 02:29:28;;;;;;;9.10;2.90;;;;;;;;;;106859;1276;22523;-77
2023/05/17 02:32:20;;;;;;;9.10;3.30;;;;;;;;;;106502;1259;24232;-82
2023/05/17 02:34:47;;;;;;;10.70;2.80;;;;;;;;;;106472;1282;25298;-78
2023/05/17 02:37:41;;;;;;;10.00;3.80;;;;;;;;;;106480;1282;25400;-77
2023/05/17 02:40:09;;;;;;;9.20;3.40;;;;;;;;;;106464;1281;22534;-83
2023/05/17 02:43:00;;;;;;;9.40;3.10;;;;;;;;;;106501;1265;25283;-78
2023/05/17 02:45:27;;;;;;;9.90;3.10;;;;;;;;;;106393;1283;24228;-80
2023/05/17 02:48:42;;;;;;;10.80;3.00;;;;;;;;;;106454;1282;24374;-81
2023/05/17 02:51:06;;;;;;;8.80;3.10;;;;;;;;;;106502;1282;23874;-82
2023/05/17 02:53:54;;;;;;;10.10;3.20;;;;;;;;;;106437;1264;22537;-78
2023/05/17 02:56:42;;;;;;;10.00;3.20;;;;;;;;;;106567;1281;22542;-82
2023/05/17 02:59:32;;;;;;;9.40;2.60;;;;;;;;;;106473;1281;24250;-83
2023/05/17 03:02:02;;;;;;;10.70;2.70;;;;;;;;;;106491;1282;22548;-80
2023/05/17 03:05:18;;;;;;;8.40;2.60;;;;;;;;;;106480;1278;24224;-78
2023/05/17 03:07:22;;;;;;;9.00;2.90;;;;;;;;;;106416;1282;24260;-80
2023/05/17 03:09:54;;;;;;;8.30;2.80;;;;;;;;;;106646;1276;24276;-79
2023/05/17 03:12:34;;;;;;;6.60;2.20;;;;;;;;;;106902;1276;24174;-79
2023/05/17 03:15:07;;;;;;;8.20;2.50;;;;;;;;;;106912;1259;24367;-82
2023/05/17 03:17:55;;;;;;;6.70;2.40;;;;;;;;;;107178;1275;22766;-82
2023/05/17 03:20:36;;;;;;;7.80;2.40;;;;;;;;;;107088;1275;22508;-83
2023/05/17 03:23:45;;;;;;;9.30;2.20;;;;;;;;;;106981;1276;23873;-83
2023/05/17 03:26:35;;;;;;;8.50;2.20;;;;;;;;;;106844;1276;22649;-81
2023/05/17 03:29:06;;;;;;;7.80;2.30;;;;;;;;;;106917;1276;26488;-79
2023/05/17 03:32:02;;;;;;;8.30;2.20;;;;;;;;;;106875;1276;22521;-83
2023/05/17 03:37:40;;;;;;;10.20;2.10;;;;;;;;;;107050;1275;22523;-76
2023/05/17 03:40:42;;;;;;;6.90;1.80;;;;;;;;;;106702;1280;22533;-81
2023/05/17 03:43:22;;;;;;;9.40;2.10;;;;;;;;;;106726;1280;22526;-82
2023/05/17 03:46:00;;;;;;;7.20;2.00;;;;;;;;;;106422;1265;22683;-78
2023/05/17 03:51:42;;;;;;;10.10;1.90;;;;;;;;;;106528;1282;22538;-77
2023/05/17 03:54:32;;;;;;;6.80;1.80;;;;;;;;;;106419;1260;22608;-82
2023/05/17 03:57:00;;;;;;;9.10;1.80;;;;;;;;;;106478;1280;23138;-84
2023/05/17 03:59:27;;;;;;;8.40;1.70;;;;;;;;;;106453;1280;22535;-84
2023/05/17 04:02:20;;;;;;;7.90;1.80;;;;;;;;;;106482;1280;23904;-83
2023/05/17 04:04:51;;;;;;;5.80;1.80;;;;;;;;;;106434;1272;24869;-81
2023/05/17 04:07:26;;;;;;;7.50;1.90;;;;;;;;;;106479;1281;24322;-79
2023/05/17 04:10:13;;;;;;;;;;;;;;;;;;;;;
2023/05/17 04:12:40;;;;;;;8.30;1.80;;;;;;;;;;106872;1276;22746;-76
2023/05/17 04:15:10;;;;;;;7.20;1.50;;;;;;;;;;106907;1254;22499;-82
2023/05/17 04:17:39;;;;;;;7.00;1.60;;;;;;;;;;107018;1275;24205;-84
2023/05/17 04:20:07;;;;;;;5.10;1.30;;;;;;;;;;106946;1276;22908;-80
2023/05/17 04:22:39;;;;;;;9.30;1.60;;;;;;;;;;107033;1275;25463;-77
2023/05/17 04:25:28;;;;;;;6.60;1.60;;;;;;;;;;106926;1268;22516;-81
2023/05/17 04:27:54;;;;;;;8.40;1.50;;;;;;;;;;106854;1275;25350;-81
2023/05/17 04:31:05;;;;;;;8.30;2.00;;;;;;;;;;106786;1277;25321;-79
2023/05/17 04:33:32;;;;;;;9.90;1.60;;;;;;;;;;106863;1277;25324;-81
2023/05/17 04:36:25;;;;;;;10.60;1.90;;;;;;;;;;106867;1277;22608;-79
2023/05/17 04:38:52;;;;;;;9.80;1.80;;;;;;;;;;106855;1277;22530;-79
2023/05/17 04:41:24;;;;;;;5.50;1.50;;;;;;;;;;106829;1277;22540;-84
2023/05/17 04:43:51;;;;;;;6.50;1.40;;;;;;;;;;106816;1277;25464;-77
2023/05/17 04:49:13;;;;;;;10.10;1.60;;;;;;;;;;106869;1277;22627;-79
2023/05/17 04:52:03;;;;;;;7.60;1.70;;;;;;;;;;106807;1277;25426;-79
2023/05/17 04:54:51;;;;;;;11.20;1.70;;;;;;;;;;106856;1277;25357;-78
2023/05/17 04:57:20;;;;;;;9.40;1.70;;;;;;;;;;106797;1262;22542;-80
2023/05/17 04:59:57;;;;;;;9.90;1.70;;;;;;;;;;106835;1277;23223;-81
2023/05/17 05:02:29;;;;;;;7.30;1.60;;;;;;;;;;106862;1277;24227;-82
2023/05/17 05:05:00;;;;;;;7.20;1.70;;;;;;;;;;106921;1277;24227;-78
2023/05/17 05:07:30;;;;;;;10.20;1.70;;;;;;;;;;106850;1269;22521;-82
2023/05/17 05:10:01;;;;;;;7.80;1.10;;;;;;;;;;106844;1277;22527;-80
2023/05/17 05:12:28;;;;;;;8.90;1.80;;;;;;;;;;106897;1259;22604;-84
2023/05/17 05:14:57;;;;;;;6.80;1.50;;;;;;;;;;106898;1276;25536;-77
2023/05/17 05:17:54;;;;;;;9.40;1.80;;;;;;;;;;106858;1259;22523;-82
2023/05/17 05:20:24;;;;;;;7.60;1.50;;;;;;;;;;106503;1280;23908;-82
2023/05/17 05:22:51;;;;;;;12.70;1.90;;;;;;;;;;106484;1280;22693;-77
2023/05/17 05:25:19;;;;;;;7.20;1.40;;;;;;;;;;106675;1278;25256;-83
2023/05/17 05:27:55;;;;;;;9.60;1.90;;;;;;;;;;106379;1267;25439;-78
2023/05/17 05:30:42;;;;;;;7.40;1.90;;;;;;;;;;106398;1281;22538;-75
2023/05/17 05:33:11;;;;;;;8.30;1.70;;;;;;;;;;106410;1281;22499;-84
2023/05/17 05:35:39;;;;;;;7.70;1.70;;;;;;;;;;106259;1282;22537;-83
2023/05/17 05:38:10;;;;;;;8.40;2.40;;;;;;;;;;106461;1265;24229;-81
2023/05/17 05:40:57;;;;;;;9.20;2.00;;;;;;;;;;106742;1280;24240;-79
2023/05/17 05:43:27;;;;;;;12.20;2.70;;;;;;;;;;106480;1280;22579;-84
2023/05/17 05:45:54;;;;;;;9.10;2.60;;;;;;;;;;106688;1280;25280;-76
2023/05/17 05:48:24;;;;;;;10.50;2.10;;;;;;;;;;106267;1282;23869;-78
2023/05/17 05:50:57;;;;;;;9.70;2.40;;;;;;;;;;106413;1278;25437;-79
2023/05/17 05:53:30;;;;;;;12.80;3.20;;;;;;;;;;106648;1278;22530;-81
2023/05/17 05:56:00;;;;;;;12.00;2.40;;;;;;;;;;106974;1277;25322;-81
2023/05/17 05:58:28;;;;;;;10.90;2.50;;;;;;;;;;107027;1266;24222;-83
2023/05/17 06:01:18;;;;;;;12.30;3.10;;;;;;;;;;107008;1275;25886;-82
2023/05/17 06:03:45;;;;;;;13.80;2.50;;;;;;;;;;106673;1280;22542;-82
2023/05/17 06:06:13;;;;;;;11.50;2.80;;;;;;;;;;106464;1281;24209;-79
2023/05/17 06:08:43;;;;;;;13.90;3.10;;;;;;;;;;106378;1264;22534;-81
2023/05/17 06:11:33;;;;;;;10.50;2.70;;;;;;;;;;106409;1282;22532;-78
2023/05/17 06:14:04;;;;;;;13.70;2.90;;;;;;;;;;106464;1282;25537;-80
2023/05/17 06:16:30;;;;;;;14.20;3.10;;;;;;;;;;110031;1281;23019;-77
2023/05/17 06:18:58;;;;;;;12.30;3.00;;;;;;;;;;110139;1267;22145;-77
2023/05/17 06:21:24;;;;;;;12.70;2.80;;;;;;;;;;110015;1280;23011;-78
2023/05/17 06:23:51;;;;;;;13.80;3.00;;;;;;;;;;110088;1280;22130;-76
2023/05/17 06:26:18;;;;;;;8.00;2.20;;;;;;;;;;110093;1281;22188;-76
2023/05/17 06:28:45;;;;;;;10.90;2.70;;;;;;;;;;110049;1264;22150;-76
2023/05/17 06:31:11;;;;;;;10.90;2.90;;;;;;;;;;110061;1281;22799;-75
2023/05/17 06:33:38;;;;;;;15.40;3.20;;;;;;;;;;110042;1278;22111;-74
2023/05/17 06:36:05;;;;;;;12.90;3.00;;;;;;;;;;110433;1277;22115;-75
2023/05/17 06:38:32;;;;;;;21.00;8.90;;;;;;;;;;110669;1257;22774;-75
2023/05/17 06:40:58;;;;;;;14.50;5.50;;;;;;;;;;110649;1276;22104;-76
2023/05/17 06:43:25;;;;;;;11.40;3.70;;;;;;;;;;110602;1276;22722;-75
2023/05/17 06:45:52;;;;;;;9.40;2.60;;;;;;;;;;110465;1276;22755;-75
2023/05/17 06:48:19;;;;;;;10.90;2.80;;;;;;;;;;110695;1257;22134;-74
2023/05/17 06:50:45;;;;;;;15.60;2.90;;;;;;;;;;110381;1278;22113;-76
2023/05/17 06:53:12;;;;;;;14.50;3.10;;;;;;;;;;110432;1277;22143;-76
2023/05/17 06:55:39;;;;;;;9.60;2.60;;;;;;;;;;110441;1277;22746;-76
2023/05/17 06:58:06;;;;;;;9.00;2.30;;;;;;;;;;110519;1267;22727;-75
2023/05/17 07:00:33;;;;;;;12.40;2.80;;;;;;;;;;110654;1276;22804;-77
2023/05/17 07:02:59;;;;;;;8.50;2.50;;;;;;;;;;110605;1276;22090;-74
2023/05/17 07:05:27;;;;;;;12.80;2.70;;;;;;;;;;110622;1276;22122;-75
2023/05/17 07:07:54;;;;;;;10.20;2.70;;;;;;;;;;110610;1254;22148;-74
2023/05/17 07:10:21;;;;;;;12.00;3.00;;;;;;;;;;110158;1277;22088;-75
2023/05/17 07:12:48;;;;;;;10.10;2.60;;;;;;;;;;110448;1277;22090;-75
2023/05/17 07:15:15;;;;;;;10.30;2.60;;;;;;;;;;110459;1278;22785;-74
2023/05/17 07:17:41;;;;;;;9.60;2.70;;;;;;;;;;110363;1277;22196;-75
2023/05/17 07:20:08;;;;;;;9.70;2.50;;;;;;;;;;110314;1269;22092;-75
2023/05/17 07:22:35;;;;;;;8.80;2.50;;;;;;;;;;110483;1276;22121;-74
2023/05/17 07:25:03;;;;;;;11.00;3.10;;;;;;;;;;110628;1276;22113;-75
2023/05/17 07:27:30;;;;;;;14.90;3.00;;;;;;;;;;110638;1276;22857;-75
2023/05/17 07:29:56;;;;;;;11.00;3.10;;;;;;;;;;110475;1262;22917;-75
2023/05/17 07:32:23;;;;;;;11.40;2.90;;;;;;;;;;110476;1277;22135;-75
2023/05/17 07:34:50;;;;;;;12.40;3.20;;;;;;;;;;110445;1278;23002;-75
2023/05/17 07:37:16;;;;;;;17.70;6.20;;;;;;;;;;108250;1277;2884723;-76
2023/05/17 07:39:43;;;;;;;13.40;3.90;;;;;;;;;;110696;1264;22118;-75
2023/05/17 07:42:10;;;;;;;11.70;3.10;;;;;;;;;;110576;1276;22093;-75
2023/05/17 07:44:37;;;;;;;11.60;3.30;;;;;;;;;;110504;1276;22778;-75
2023/05/17 07:47:03;;;;;;;10.20;3.10;;;;;;;;;;110441;1276;22313;-76
2023/05/17 07:49:31;;;;;;;13.20;2.90;;;;;;;;;;110613;1260;22787;-74
2023/05/17 07:51:57;;;;;;;12.20;3.20;;;;;;;;;;110415;1277;22109;-74
2023/05/17 07:54:28;;;;;;;13.00;3.50;;;;;;;;;;110425;1278;22123;-75
2023/05/17 07:56:54;;;;;;;11.60;2.70;;;;;;;;;;110296;1278;22178;-75
2023/05/17 07:59:21;;;;;;;11.40;3.10;;;;;;;;;;110478;1261;22125;-76
2023/05/17 08:01:48;;;;;;;8.50;2.20;;;;;;;;;;110430;1276;22105;-75
2023/05/17 08:04:16;;;;;;;10.00;2.90;;;;;;;;;;110455;1276;22121;-75
2023/05/17 08:06:45;;;;;;;11.90;3.80;;;;;;;;;;110492;1276;21969;-75
2023/05/17 08:09:11;;;;;;;10.40;3.20;;;;;;;;;;110538;1257;22234;-75
2023/05/17 08:11:44;;;;;;;14.40;3.30;;;;;;;;;;110454;1254;22162;-75
2023/05/17 08:14:15;;;;;;;11.10;3.30;;;;;;;;;;110322;1278;22951;-75
2023/05/17 08:16:42;;;;;;;11.80;3.50;;;;;;;;;;110317;1278;22934;-75
2023/05/17 08:19:11;;;;;;;11.90;3.00;;;;;;;;;;110330;1254;22415;-76
2023/05/17 08:21:38;;;;;;;12.60;3.00;;;;;;;;;;110428;1276;22120;-74
2023/05/17 08:24:05;;;;;;;11.30;2.90;;;;;;;;;;110419;1276;22452;-76
2023/05/17 08:26:32;;;;;;;12.40;3.70;;;;;;;;;;110498;1276;22124;-75
2023/05/17 08:29:00;;;;;;;12.80;3.40;;;;;;;;;;110497;1276;22162;-75
2023/05/17 08:31:27;;;;;;;16.30;3.90;;;;;;;;;;110630;1270;22136;-74
2023/05/17 08:33:53;;;;;;;14.70;4.30;;;;;;;;;;110402;1277;22416;-75
2023/05/17 08:36:20;;;;;;;13.20;5.00;;;;;;;;;;110415;1277;22175;-76
2023/05/17 08:38:47;;;;;;;16.30;4.50;;;;;;;;;;110412;1278;23086;-76
2023/05/17 08:41:13;;;;;;;13.30;4.00;;;;;;;;;;110760;1269;22855;-76
2023/05/17 08:43:40;;;;;;;15.00;3.60;;;;;;;;;;110462;1278;22113;-74
2023/05/17 08:46:08;;;;;;;14.80;4.10;;;;;;;;;;110449;1278;22106;-76
2023/05/17 08:48:37;;;;;;;11.10;2.90;;;;;;;;;;110425;1277;22161;-76
2023/05/17 08:51:04;;;;;;;12.80;3.90;;;;;;;;;;110603;1256;22871;-75
2023/05/17 08:53:31;;;;;;;12.30;3.00;;;;;;;;;;110374;1278;22274;-75
2023/05/17 08:55:59;;;;;;;12.30;3.90;;;;;;;;;;110387;1278;22300;-73
2023/05/17 08:58:28;;;;;;;13.00;4.10;;;;;;;;;;110291;1278;22109;-76
2023/05/17 09:00:55;;;;;;;12.80;4.10;;;;;;;;;;110423;1254;22107;-75
2023/05/17 09:03:22;;;;;;;14.70;5.10;;;;;;;;;;110443;1277;22099;-75
2023/05/17 09:05:51;;;;;;;15.60;3.90;;;;;;;;;;110456;1277;22366;-74
2023/05/17 09:08:19;;;;;;;13.70;3.90;;;;;;;;;;110437;1277;22107;-74
2023/05/17 09:10:45;;;;;;;12.30;3.80;;;;;;;;;;110260;1262;22822;-74
2023/05/17 09:13:12;;;;;;;13.90;4.00;;;;;;;;;;110283;1278;22103;-73
2023/05/17 09:15:47;;;;;;;22.10;6.00;;;;;;;;;;110381;1278;22109;-75
2023/05/17 09:18:14;;;;;;;13.50;4.50;;;;;;;;;;110269;1278;22125;-74
2023/05/17 09:20:41;;;;;;;15.30;4.90;;;;;;;;;;110299;1254;22221;-75
2023/05/17 09:23:09;;;;;;;12.80;4.30;;;;;;;;;;110435;1277;22098;-75
2023/05/17 09:25:36;;;;;;;14.90;4.20;;;;;;;;;;110444;1277;22090;-75
2023/05/17 09:28:04;;;;;;;15.40;3.80;;;;;;;;;;110385;1277;22166;-76
2023/05/17 09:30:31;;;;;;;11.50;3.70;;;;;;;;;;110352;1277;22371;-76
2023/05/17 09:33:04;;;;;;;15.20;3.60;;;;;;;;;;110104;1263;22909;-73
2023/05/17 09:35:32;;;;;;;14.10;3.60;;;;;;;;;;110373;1278;22145;-76
2023/05/17 09:38:10;;;;;;;13.00;3.60;;;;;;;;;;110286;1278;22104;-75
2023/05/17 09:40:40;;;;;;;12.80;4.30;;;;;;;;;;110281;1278;22160;-75
2023/05/17 09:43:07;;;;;;;12.60;3.80;;;;;;;;;;110251;1260;22127;-76
2023/05/17 09:45:35;;;;;;;11.70;3.20;;;;;;;;;;110320;1279;22235;-74
2023/05/17 09:48:14;;;;;;;12.00;3.80;;;;;;;;;;110328;1279;22164;-75
2023/05/17 09:50:45;;;;;;;19.70;5.00;;;;;;;;;;110325;1278;22094;-76
2023/05/17 09:53:41;;;;;;;15.50;5.90;;;;;;;;;;110138;1262;22256;-75
2023/05/17 09:56:08;;;;;;;18.00;5.40;;;;;;;;;;110153;1279;22201;-73
2023/05/17 09:58:36;;;;;;;14.10;4.60;;;;;;;;;;110192;1279;22804;-76
2023/05/17 10:01:03;;;;;;;16.20;5.00;;;;;;;;;;110185;1279;22137;-75
2023/05/17 10:03:32;;;;;;;18.20;4.60;;;;;;;;;;110525;1257;22103;-74
2023/05/17 10:06:00;;;;;;;13.20;4.20;;;;;;;;;;110292;1278;22814;-75
2023/05/17 10:08:28;;;;;;;12.20;4.10;;;;;;;;;;110317;1264;22069;-75
2023/05/17 10:10:57;;;;;;;11.90;4.50;;;;;;;;;;110287;1278;22946;-75
2023/05/17 10:13:26;;;;;;;12.80;3.70;;;;;;;;;;110569;1260;22180;-75
2023/05/17 10:15:53;;;;;;;10.10;3.40;;;;;;;;;;110203;1279;22125;-75
2023/05/17 10:18:20;;;;;;;14.90;4.10;;;;;;;;;;110162;1279;22340;-75
2023/05/17 10:20:48;;;;;;;11.10;3.50;;;;;;;;;;110190;1279;22873;-75
2023/05/17 10:23:15;;;;;;;12.10;4.00;;;;;;;;;;110509;1257;22460;-75
2023/05/17 10:25:42;;;;;;;11.90;4.70;;;;;;;;;;110195;1279;22125;-75
2023/05/17 10:28:10;;;;;;;11.40;3.50;;;;;;;;;;110311;1278;22085;-75
2023/05/17 10:30:37;;;;;;;11.40;3.40;;;;;;;;;;110320;1279;22118;-76
2023/05/17 10:33:04;;;;;;;9.30;2.90;;;;;;;;;;110422;1260;22199;-75
2023/05/17 10:35:31;;;;;;;12.50;4.90;;;;;;;;;;110197;1279;22296;-74
2023/05/17 10:37:58;;;;;;;16.00;4.80;;;;;;;;;;110197;1279;21980;-74
2023/05/17 10:40:25;;;;;;;12.30;4.20;;;;;;;;;;110203;1279;22103;-75
2023/05/17 10:42:53;;;;;;;12.50;3.80;;;;;;;;;;110193;1260;22288;-75
2023/05/17 10:45:22;;;;;;;14.80;3.40;;;;;;;;;;110273;1279;22179;-75
2023/05/17 10:47:52;;;;;;;12.10;3.30;;;;;;;;;;110153;1279;22909;-76
2023/05/17 10:50:24;;;;;;;13.60;3.30;;;;;;;;;;110289;1279;22152;-75
2023/05/17 10:52:52;;;;;;;15.40;5.40;;;;;;;;;;110169;1262;23001;-76
2023/05/17 10:55:20;;;;;;;12.20;4.70;;;;;;;;;;110137;1280;22902;-75
2023/05/17 10:58:05;;;;;;;14.80;5.50;;;;;;;;;;110084;1280;22006;-76
2023/05/17 11:00:37;;;;;;;13.90;4.50;;;;;;;;;;110160;1280;22870;-75
2023/05/17 11:03:11;;;;;;;11.00;4.10;;;;;;;;;;110147;1259;22031;-77
2023/05/17 11:05:41;;;;;;;15.10;4.50;;;;;;;;;;110186;1279;22076;-76
2023/05/17 11:08:15;;;;;;;12.10;3.70;;;;;;;;;;110312;1279;22107;-74
2023/05/17 11:11:01;;;;;;;8.90;3.10;;;;;;;;;;110303;1279;22884;-78
2023/05/17 11:13:28;;;;;;;12.00;3.30;;;;;;;;;;110334;1260;22132;-75
2023/05/17 11:16:06;;;;;;;12.80;3.30;;;;;;;;;;110167;1280;22161;-74
2023/05/17 11:18:49;;;;;;;11.30;3.10;;;;;;;;;;110104;1280;22108;-76
2023/05/17 11:21:16;;;;;;;16.00;3.60;;;;;;;;;;110135;1280;22155;-74
2023/05/17 11:23:44;;;;;;;11.10;3.20;;;;;;;;;;110164;1261;22981;-78
2023/05/17 11:26:15;;;;;;;9.50;3.00;;;;;;;;;;110183;1279;22209;-76
2023/05/17 11:28:42;;;;;;;10.70;3.30;;;;;;;;;;110287;1279;22761;-76
2023/05/17 11:31:10;;;;;;;9.30;2.70;;;;;;;;;;110174;1279;22120;-76
2023/05/17 11:33:40;;;;;;;10.30;2.80;;;;;;;;;;110257;1257;22097;-77
2023/05/17 11:36:18;;;;;;;10.10;2.70;;;;;;;;;;110109;1280;22875;-77
2023/05/17 11:38:49;;;;;;;10.50;2.60;;;;;;;;;;110139;1280;22089;-80
2023/05/17 11:41:18;;;;;;;9.30;2.50;;;;;;;;;;110091;1280;22500;-79
2023/05/17 11:43:47;;;;;;;10.80;3.00;;;;;;;;;;110199;1260;22141;-75
2023/05/17 11:46:19;;;;;;;9.60;2.40;;;;;;;;;;110183;1280;22293;-76
2023/05/17 11:48:47;;;;;;;8.00;2.30;;;;;;;;;;110177;1280;22111;-76
2023/05/17 11:51:15;;;;;;;8.10;2.10;;;;;;;;;;110192;1280;22832;-77
2023/05/17 11:53:43;;;;;;;8.40;2.20;;;;;;;;;;110125;1257;22155;-77
2023/05/17 11:56:12;;;;;;;9.00;2.50;;;;;;;;;;110056;1280;22109;-75
2023/05/17 11:58:41;;;;;;;7.30;2.20;;;;;;;;;;110124;1280;22852;-75
2023/05/17 12:01:09;;;;;;;6.80;2.30;;;;;;;;;;110039;1280;22111;-78
2023/05/17 12:03:36;;;;;;;7.20;2.10;;;;;;;;;;110111;1256;22366;-77
2023/05/17 12:06:14;;;;;;;12.80;3.00;;;;;;;;;;110153;1280;22133;-78
2023/05/17 12:08:46;;;;;;;6.90;2.30;;;;;;;;;;110142;1280;22131;-77
2023/05/17 12:11:17;;;;;;;15.50;2.30;;;;;;;;;;110143;1280;22213;-79
2023/05/17 12:13:47;;;;;;;6.60;2.20;;;;;;;;;;110147;1280;23089;-77
2023/05/17 12:16:15;;;;;;;9.60;2.50;;;;;;;;;;110082;1275;22090;-76
2023/05/17 12:18:50;;;;;;;7.70;2.00;;;;;;;;;;110073;1280;22110;-77
2023/05/17 12:21:21;;;;;;;7.90;2.40;;;;;;;;;;110152;1280;22120;-77
2023/05/17 12:23:53;;;;;;;7.30;2.40;;;;;;;;;;110076;1280;22145;-77
2023/05/17 12:26:22;;;;;;;7.70;2.30;;;;;;;;;;110466;1259;22848;-77
2023/05/17 12:28:53;;;;;;;8.20;2.00;;;;;;;;;;110184;1280;22301;-80
2023/05/17 12:31:39;;;;;;;7.20;2.10;;;;;;;;;;110188;1275;22126;-77
2023/05/17 12:34:19;;;;;;;9.20;2.40;;;;;;;;;;110136;1280;22921;-78
2023/05/17 12:36:51;;;;;;;8.90;2.30;;;;;;;;;;110148;1262;22243;-81
2023/05/17 12:39:31;;;;;;;7.00;2.10;;;;;;;;;;110082;1280;22229;-79
2023/05/17 12:42:00;;;;;;;7.40;2.70;;;;;;;;;;110068;1281;22764;-77
2023/05/17 12:44:29;;;;;;;8.50;2.60;;;;;;;;;;110054;1281;22128;-79
2023/05/17 12:47:02;;;;;;;9.30;2.60;;;;;;;;;;110290;1262;22121;-77
2023/05/17 12:49:38;;;;;;;7.60;2.40;;;;;;;;;;110148;1281;22213;-77
2023/05/17 12:52:10;;;;;;;9.40;2.60;;;;;;;;;;110115;1280;22140;-78
2023/05/17 12:54:39;;;;;;;8.60;2.90;;;;;;;;;;110117;1280;22123;-79
2023/05/17 12:57:17;;;;;;;10.00;3.50;;;;;;;;;;110460;1262;22164;-78
2023/05/17 12:59:50;;;;;;;10.20;3.00;;;;;;;;;;110023;1281;22699;-77
2023/05/17 13:02:19;;;;;;;11.30;2.80;;;;;;;;;;110098;1281;22704;-78
2023/05/17 13:04:48;;;;;;;8.00;2.70;;;;;;;;;;110044;1281;22078;-77
2023/05/17 13:07:22;;;;;;;10.50;3.00;;;;;;;;;;110450;1259;22118;-78
2023/05/17 13:09:52;;;;;;;9.90;3.00;;;;;;;;;;110045;1281;22821;-77
2023/05/17 13:12:22;;;;;;;10.20;2.80;;;;;;;;;;110167;1280;22688;-78
2023/05/17 13:14:54;;;;;;;9.90;3.00;;;;;;;;;;110125;1280;22168;-78
2023/05/17 13:17:39;;;;;;;10.20;2.80;;;;;;;;;;110190;1263;22921;-78
2023/05/17 13:20:08;;;;;;;9.60;3.00;;;;;;;;;;110068;1281;22113;-79
2023/05/17 13:22:56;;;;;;;10.40;2.80;;;;;;;;;;110027;1281;22124;-79
2023/05/17 13:25:25;;;;;;;7.70;2.70;;;;;;;;;;110093;1281;22082;-79
2023/05/17 13:28:08;;;;;;;;;;;;;;;;;;;;;
2023/05/17 13:30:44;;;;;;;10.80;3.20;;;;;;;;;;110126;1280;22010;-79
2023/05/17 13:33:13;;;;;;;16.40;9.00;;;;;;;;;;110144;1280;22115;-78
2023/05/17 13:35:42;;;;;;;17.90;11.10;;;;;;;;;;110120;1259;22377;-78
2023/05/17 13:38:11;;;;;;;11.00;6.80;;;;;;;;;;110040;1261;21935;-78
2023/05/17 13:40:50;;;;;;;16.00;7.00;;;;;;;;;;110125;1281;22137;-78
2023/05/17 13:50:27;;;;;;;12.10;3.60;;;;;;;;;;103835;1295;544952;-77
2023/05/17 13:52:57;;;;;;;11.90;3.90;;;;;;;;;;106303;1287;24072;-81
2023/05/17 13:55:33;;;;;;;10.30;4.00;;;;;;;;;;106243;1276;22546;-80
2023/05/17 13:58:09;;;;;;;11.00;5.40;;;;;;;;;;106214;1287;25342;-79
2023/05/17 14:00:36;;;;;;;9.70;3.00;;;;;;;;;;106105;1277;22787;-77
2023/05/17 14:05:53;;;;;;;11.00;3.00;;;;;;;;;;106739;1279;24380;-79
2023/05/17 14:08:20;;;;;;;11.60;4.20;;;;;;;;;;106286;1283;23007;-77
2023/05/17 14:10:47;;;;;;;14.60;7.90;;;;;;;;;;106416;1267;22972;-80
2023/05/17 14:13:18;;;;;;;12.60;4.50;;;;;;;;;;106559;1282;25217;-81
2023/05/17 14:15:45;;;;;;;10.30;3.40;;;;;;;;;;109903;1285;22001;-78
2023/05/17 14:18:12;;;;;;;10.80;3.50;;;;;;;;;;109867;1285;22255;-77
2023/05/17 14:20:39;;;;;;;9.90;3.30;;;;;;;;;;109918;1273;22620;-77
2023/05/17 14:23:05;;;;;;;10.50;4.00;;;;;;;;;;109937;1285;22117;-77
2023/05/17 14:25:32;;;;;;;13.20;3.90;;;;;;;;;;109892;1285;22198;-77
2023/05/17 14:27:59;;;;;;;8.60;2.80;;;;;;;;;;109861;1286;22256;-79
2023/05/17 14:30:25;;;;;;;11.60;2.80;;;;;;;;;;109817;1272;22205;-77
2023/05/17 14:32:52;;;;;;;10.10;2.70;;;;;;;;;;109838;1286;22867;-78
2023/05/17 14:35:19;;;;;;;10.10;3.50;;;;;;;;;;110595;1275;22948;-78
2023/05/17 14:37:46;;;;;;;10.90;4.10;;;;;;;;;;110532;1275;22119;-77
2023/05/17 14:40:12;;;;;;;12.20;3.70;;;;;;;;;;110523;1254;22244;-76
2023/05/17 14:42:39;;;;;;;9.60;3.70;;;;;;;;;;110614;1275;22130;-77
2023/05/17 14:45:06;;;;;;;14.40;4.70;;;;;;;;;;110659;1275;22907;-76
2023/05/17 14:47:33;;;;;;;11.00;4.60;;;;;;;;;;110625;1275;22198;-78
2023/05/17 14:50:00;;;;;;;11.50;3.60;;;;;;;;;;110507;1275;22424;-77
2023/05/17 14:52:27;;;;;;;12.60;3.90;;;;;;;;;;111082;1257;22867;-78
2023/05/17 14:54:53;;;;;;;9.50;3.10;;;;;;;;;;110641;1275;22387;-77
2023/05/17 14:57:20;;;;;;;9.60;3.00;;;;;;;;;;110671;1263;22096;-78
2023/05/17 14:59:47;;;;;;;9.70;2.70;;;;;;;;;;110675;1275;22103;-77
2023/05/17 15:02:14;;;;;;;10.70;3.20;;;;;;;;;;110961;1266;22159;-78
2023/05/17 15:04:50;;;;;;;11.30;2.60;;;;;;;;;;110522;1276;22120;-76
2023/05/17 15:07:20;;;;;;;7.90;2.50;;;;;;;;;;110623;1276;22514;-77
2023/05/17 15:09:50;;;;;;;9.60;3.00;;;;;;;;;;110637;1276;22760;-77
2023/05/17 15:12:16;;;;;;;9.20;2.70;;;;;;;;;;110624;1257;22106;-77
2023/05/17 15:14:45;;;;;;;11.60;3.80;;;;;;;;;;110588;1276;22187;-74